sensor_id;sensor_type;location;lat;lon;timestamp;temperature;humidity
9730;DHT22;4904;49.152;11.004;2023-12-22T00:02:24;4.30;99.90
9730;DHT22;4904;49.152;11.004;2023-12-22T00:04:51;4.20;99.90
9730;DHT22;4904;49.152;11.004;2023-12-22T00:07:18;4.20;99.90
9730;DHT22;4904;49.152;11.004;2023-12-22T00:09:47;4.20;99.90
9730;DHT22;4904;49.152;11.004;2023-12-22T00:12:14;4.10;99.90
9730;DHT22;4904;49.152;11.004;2023-12-22T00:14:41;4.00;99.90
9730;DHT22;4904;49.152;11.004;2023-12-22T00:17:08;4.00;99.90
9730;DHT22;4904;49.152;11.004;2023-12-22T00:19:35;3.90;99.90
9730;DHT22;4904;49.152;11.004;2023-12-22T00:22:02;3.80;99.90
9730;DHT22;4904;49.152;11.004;2023-12-22T00:24:29;3.80;99.90
9730;DHT22;4904;49.152;11.004;2023-12-22T00:26:57;3.70;99.90
9730;DHT22;4904;49.152;11.004;2023-12-22T00:29:24;3.60;99.90
9730;DHT22;4904;49.152;11.004;2023-12-22T00:31:53;3.50;99.90
9730;DHT22;4904;49.152;11.004;2023-12-22T00:34:22;3.40;99.90
9730;DHT22;4904;49.152;11.004;2023-12-22T00:36:49;3.40;99.90
9730;DHT22;4904;49.152;11.004;2023-12-22T00:39:16;3.40;99.90
9730;DHT22;4904;49.152;11.004;2023-12-22T00:41:42;3.40;99.90
9730;DHT22;4904;49.152;11.004;2023-12-22T00:44:11;3.40;99.90
9730;DHT22;4904;49.152;11.004;2023-12-22T00:46:38;3.40;99.90
9730;DHT22;4904;49.152;11.004;2023-12-22T00:49:04;3.40;99.90
9730;DHT22;4904;49.152;11.004;2023-12-22T00:51:31;3.40;99.90
9730;DHT22;4904;49.152;11.004;2023-12-22T00:53:58;3.40;99.90
9730;DHT22;4904;49.152;11.004;2023-12-22T00:56:25;3.50;99.90
9730;DHT22;4904;49.152;11.004;2023-12-22T00:58:52;3.40;99.90
9730;DHT22;4904;49.152;11.004;2023-12-22T01:01:20;3.50;99.90
9730;DHT22;4904;49.152;11.004;2023-12-22T01:03:48;3.50;99.90
9730;DHT22;4904;49.152;11.004;2023-12-22T01:06:15;3.40;99.90
9730;DHT22;4904;49.152;11.004;2023-12-22T01:08:42;3.40;99.90
9730;DHT22;4904;49.152;11.004;2023-12-22T01:11:08;3.40;99.90
9730;DHT22;4904;49.152;11.004;2023-12-22T01:13:35;3.40;99.90
9730;DHT22;4904;49.152;11.004;2023-12-22T01:16:03;3.40;99.90
9730;DHT22;4904;49.152;11.004;2023-12-22T01:18:31;3.40;99.90
9730;DHT22;4904;49.152;11.004;2023-12-22T01:20:58;3.40;99.90
9730;DHT22;4904;49.152;11.004;2023-12-22T01:23:25;3.50;99.90
9730;DHT22;4904;49.152;11.004;2023-12-22T01:25:52;3.40;99.90
9730;DHT22;4904;49.152;11.004;2023-12-22T01:28:19;3.50;99.90
9730;DHT22;4904;49.152;11.004;2023-12-22T01:30:45;3.60;99.90
9730;DHT22;4904;49.152;11.004;2023-12-22T01:33:13;3.50;99.90
9730;DHT22;4904;49.152;11.004;2023-12-22T01:35:41;3.50;99.90
9730;DHT22;4904;49.152;11.004;2023-12-22T01:38:08;3.50;99.90
9730;DHT22;4904;49.152;11.004;2023-12-22T01:40:35;3.50;99.90
9730;DHT22;4904;49.152;11.004;2023-12-22T01:43:02;3.50;99.90
9730;DHT22;4904;49.152;11.004;2023-12-22T01:45:29;3.50;99.90
9730;DHT22;4904;49.152;11.004;2023-12-22T01:47:56;3.50;99.90
9730;DHT22;4904;49.152;11.004;2023-12-22T01:50:24;3.40;99.90
9730;DHT22;4904;49.152;11.004;2023-12-22T01:52:53;3.40;99.90
9730;DHT22;4904;49.152;11.004;2023-12-22T01:55:20;3.40;99.90
9730;DHT22;4904;49.152;11.004;2023-12-22T01:57:47;3.40;99.90
9730;DHT22;4904;49.152;11.004;2023-12-22T02:00:17;3.40;99.90
9730;DHT22;4904;49.152;11.004;2023-12-22T02:02:44;3.50;99.90
9730;DHT22;4904;49.152;11.004;2023-12-22T02:05:11;3.50;99.90
9730;DHT22;4904;49.152;11.004;2023-12-22T02:07:38;3.50;99.90
9730;DHT22;4904;49.152;11.004;2023-12-22T02:10:09;3.50;99.90
9730;DHT22;4904;49.152;11.004;2023-12-22T02:12:36;3.50;99.90
9730;DHT22;4904;49.152;11.004;2023-12-22T02:15:04;3.60;99.90
9730;DHT22;4904;49.152;11.004;2023-12-22T02:17:39;3.60;99.90
9730;DHT22;4904;49.152;11.004;2023-12-22T02:20:08;3.60;99.90
9730;DHT22;4904;49.152;11.004;2023-12-22T02:22:37;3.70;99.90
9730;DHT22;4904;49.152;11.004;2023-12-22T02:25:04;3.70;99.90
9730;DHT22;4904;49.152;11.004;2023-12-22T02:27:34;3.70;99.90
9730;DHT22;4904;49.152;11.004;2023-12-22T02:30:08;3.70;99.90
9730;DHT22;4904;49.152;11.004;2023-12-22T02:32:38;3.70;99.90
9730;DHT22;4904;49.152;11.004;2023-12-22T02:35:10;3.70;99.90
9730;DHT22;4904;49.152;11.004;2023-12-22T02:37:39;3.70;99.90
9730;DHT22;4904;49.152;11.004;2023-12-22T02:40:08;3.70;99.90
9730;DHT22;4904;49.152;11.004;2023-12-22T02:42:36;3.80;99.90
9730;DHT22;4904;49.152;11.004;2023-12-22T02:45:04;3.80;99.90
9730;DHT22;4904;49.152;11.004;2023-12-22T02:47:31;3.70;99.90
9730;DHT22;4904;49.152;11.004;2023-12-22T02:49:59;3.70;99.90
9730;DHT22;4904;49.152;11.004;2023-12-22T02:52:26;3.60;99.90
9730;DHT22;4904;49.152;11.004;2023-12-22T02:54:54;3.60;99.90
9730;DHT22;4904;49.152;11.004;2023-12-22T02:57:21;3.50;99.90
9730;DHT22;4904;49.152;11.004;2023-12-22T02:59:48;3.50;99.90
9730;DHT22;4904;49.152;11.004;2023-12-22T03:02:15;3.50;99.90
9730;DHT22;4904;49.152;11.004;2023-12-22T03:04:42;3.50;99.90
9730;DHT22;4904;49.152;11.004;2023-12-22T03:07:09;3.50;99.90
9730;DHT22;4904;49.152;11.004;2023-12-22T03:09:35;3.50;99.90
9730;DHT22;4904;49.152;11.004;2023-12-22T03:12:04;3.50;99.90
9730;DHT22;4904;49.152;11.004;2023-12-22T03:14:31;3.50;99.90
9730;DHT22;4904;49.152;11.004;2023-12-22T03:16:58;3.50;99.90
9730;DHT22;4904;49.152;11.004;2023-12-22T03:19:25;3.50;99.90
9730;DHT22;4904;49.152;11.004;2023-12-22T03:21:52;3.50;99.90
9730;DHT22;4904;49.152;11.004;2023-12-22T03:24:19;3.50;99.90
9730;DHT22;4904;49.152;11.004;2023-12-22T03:26:48;3.50;99.90
9730;DHT22;4904;49.152;11.004;2023-12-22T03:29:16;3.50;99.90
9730;DHT22;4904;49.152;11.004;2023-12-22T03:31:43;3.50;99.90
9730;DHT22;4904;49.152;11.004;2023-12-22T03:34:10;3.50;99.90
9730;DHT22;4904;49.152;11.004;2023-12-22T03:36:38;3.60;99.90
9730;DHT22;4904;49.152;11.004;2023-12-22T03:41:30;3.60;99.90
9730;DHT22;4904;49.152;11.004;2023-12-22T03:43:57;3.50;99.90
9730;DHT22;4904;49.152;11.004;2023-12-22T03:46:26;3.60;99.90
9730;DHT22;4904;49.152;11.004;2023-12-22T03:48:53;3.40;99.90
9730;DHT22;4904;49.152;11.004;2023-12-22T03:51:19;3.30;99.90
9730;DHT22;4904;49.152;11.004;2023-12-22T03:53:46;3.30;99.90
9730;DHT22;4904;49.152;11.004;2023-12-22T03:58:47;3.20;99.90
9730;DHT22;4904;49.152;11.004;2023-12-22T04:01:14;3.20;99.90
9730;DHT22;4904;49.152;11.004;2023-12-22T04:03:42;3.10;99.90
9730;DHT22;4904;49.152;11.004;2023-12-22T04:06:09;3.10;99.90
9730;DHT22;4904;49.152;11.004;2023-12-22T04:08:36;3.20;99.90
9730;DHT22;4904;49.152;11.004;2023-12-22T04:11:03;3.10;99.90
9730;DHT22;4904;49.152;11.004;2023-12-22T04:13:30;3.10;99.90
9730;DHT22;4904;49.152;11.004;2023-12-22T04:15:56;3.10;99.90
9730;DHT22;4904;49.152;11.004;2023-12-22T04:18:24;3.20;99.90
9730;DHT22;4904;49.152;11.004;2023-12-22T04:20:52;3.10;99.90
9730;DHT22;4904;49.152;11.004;2023-12-22T04:23:20;3.10;99.90
9730;DHT22;4904;49.152;11.004;2023-12-22T04:25:47;3.10;99.90
9730;DHT22;4904;49.152;11.004;2023-12-22T04:28:14;3.10;99.90
9730;DHT22;4904;49.152;11.004;2023-12-22T04:30:41;3.10;99.90
9730;DHT22;4904;49.152;11.004;2023-12-22T04:33:08;3.10;99.90
9730;DHT22;4904;49.152;11.004;2023-12-22T04:35:35;3.20;99.90
9730;DHT22;4904;49.152;11.004;2023-12-22T04:38:03;3.20;99.90
9730;DHT22;4904;49.152;11.004;2023-12-22T04:40:30;3.20;99.90
9730;DHT22;4904;49.152;11.004;2023-12-22T04:42:57;3.30;99.90
9730;DHT22;4904;49.152;11.004;2023-12-22T04:45:24;3.30;99.90
9730;DHT22;4904;49.152;11.004;2023-12-22T04:47:50;3.30;99.90
9730;DHT22;4904;49.152;11.004;2023-12-22T04:50:17;3.40;99.90
9730;DHT22;4904;49.152;11.004;2023-12-22T04:52:44;3.40;99.90
9730;DHT22;4904;49.152;11.004;2023-12-22T04:55:12;3.40;99.90
9730;DHT22;4904;49.152;11.004;2023-12-22T04:57:40;3.50;99.90
9730;DHT22;4904;49.152;11.004;2023-12-22T05:00:08;3.40;99.90
9730;DHT22;4904;49.152;11.004;2023-12-22T05:02:35;3.50;99.90
9730;DHT22;4904;49.152;11.004;2023-12-22T05:05:02;3.50;99.90
9730;DHT22;4904;49.152;11.004;2023-12-22T05:07:28;3.40;99.90
9730;DHT22;4904;49.152;11.004;2023-12-22T05:09:55;3.40;99.90
9730;DHT22;4904;49.152;11.004;2023-12-22T05:12:24;3.30;99.90
9730;DHT22;4904;49.152;11.004;2023-12-22T05:14:50;3.20;99.90
9730;DHT22;4904;49.152;11.004;2023-12-22T05:17:17;3.30;99.90
9730;DHT22;4904;49.152;11.004;2023-12-22T05:19:44;3.10;99.90
9730;DHT22;4904;49.152;11.004;2023-12-22T05:22:11;3.10;99.90
9730;DHT22;4904;49.152;11.004;2023-12-22T05:24:38;2.90;99.90
9730;DHT22;4904;49.152;11.004;2023-12-22T05:27:05;2.80;99.90
9730;DHT22;4904;49.152;11.004;2023-12-22T05:29:33;2.60;99.90
9730;DHT22;4904;49.152;11.004;2023-12-22T05:32:00;2.50;99.90
9730;DHT22;4904;49.152;11.004;2023-12-22T05:34:27;2.40;99.90
9730;DHT22;4904;49.152;11.004;2023-12-22T05:36:55;2.30;99.90
9730;DHT22;4904;49.152;11.004;2023-12-22T05:39:22;2.30;99.90
9730;DHT22;4904;49.152;11.004;2023-12-22T05:41:49;2.30;99.90
9730;DHT22;4904;49.152;11.004;2023-12-22T05:44:16;2.30;99.90
9730;DHT22;4904;49.152;11.004;2023-12-22T05:46:44;2.30;99.90
9730;DHT22;4904;49.152;11.004;2023-12-22T05:49:11;2.20;99.90
9730;DHT22;4904;49.152;11.004;2023-12-22T05:51:38;2.40;99.90
9730;DHT22;4904;49.152;11.004;2023-12-22T05:54:05;2.40;99.90
9730;DHT22;4904;49.152;11.004;2023-12-22T05:56:32;2.50;99.90
9730;DHT22;4904;49.152;11.004;2023-12-22T05:58:59;2.60;99.90
9730;DHT22;4904;49.152;11.004;2023-12-22T06:01:26;2.60;99.90
9730;DHT22;4904;49.152;11.004;2023-12-22T06:03:55;2.70;99.90
9730;DHT22;4904;49.152;11.004;2023-12-22T06:06:22;2.80;99.90
9730;DHT22;4904;49.152;11.004;2023-12-22T06:08:49;3.00;99.90
9730;DHT22;4904;49.152;11.004;2023-12-22T06:11:16;2.90;99.90
9730;DHT22;4904;49.152;11.004;2023-12-22T06:13:43;3.00;99.90
9730;DHT22;4904;49.152;11.004;2023-12-22T06:16:13;3.00;99.90
9730;DHT22;4904;49.152;11.004;2023-12-22T06:18:40;3.00;99.90
9730;DHT22;4904;49.152;11.004;2023-12-22T06:21:09;3.10;99.90
9730;DHT22;4904;49.152;11.004;2023-12-22T06:23:36;3.20;99.90
9730;DHT22;4904;49.152;11.004;2023-12-22T06:26:08;3.30;99.90
9730;DHT22;4904;49.152;11.004;2023-12-22T06:28:35;3.40;99.90
9730;DHT22;4904;49.152;11.004;2023-12-22T06:31:03;3.50;99.90
9730;DHT22;4904;49.152;11.004;2023-12-22T06:33:30;3.70;99.90
9730;DHT22;4904;49.152;11.004;2023-12-22T06:35:57;4.00;99.90
9730;DHT22;4904;49.152;11.004;2023-12-22T06:38:25;4.00;99.90
9730;DHT22;4904;49.152;11.004;2023-12-22T06:40:53;4.10;99.90
9730;DHT22;4904;49.152;11.004;2023-12-22T06:43:20;4.20;99.90
9730;DHT22;4904;49.152;11.004;2023-12-22T06:45:47;4.20;99.90
9730;DHT22;4904;49.152;11.004;2023-12-22T06:48:14;4.20;99.90
9730;DHT22;4904;49.152;11.004;2023-12-22T06:50:41;4.20;99.90
9730;DHT22;4904;49.152;11.004;2023-12-22T06:53:10;4.20;99.90
9730;DHT22;4904;49.152;11.004;2023-12-22T06:55:38;4.30;99.90
9730;DHT22;4904;49.152;11.004;2023-12-22T06:58:05;4.20;99.90
9730;DHT22;4904;49.152;11.004;2023-12-22T07:00:32;4.20;99.90
9730;DHT22;4904;49.152;11.004;2023-12-22T07:02:58;4.20;99.90
9730;DHT22;4904;49.152;11.004;2023-12-22T07:05:33;4.10;99.90
9730;DHT22;4904;49.152;11.004;2023-12-22T07:08:03;4.10;99.90
9730;DHT22;4904;49.152;11.004;2023-12-22T07:10:30;4.10;99.90
9730;DHT22;4904;49.152;11.004;2023-12-22T07:12:58;4.00;99.90
9730;DHT22;4904;49.152;11.004;2023-12-22T07:15:25;4.10;99.90
9730;DHT22;4904;49.152;11.004;2023-12-22T07:17:53;4.10;99.90
9730;DHT22;4904;49.152;11.004;2023-12-22T07:20:20;4.10;99.90
9730;DHT22;4904;49.152;11.004;2023-12-22T07:22:47;4.00;99.90
9730;DHT22;4904;49.152;11.004;2023-12-22T07:25:14;4.00;99.90
9730;DHT22;4904;49.152;11.004;2023-12-22T07:27:41;4.00;99.90
9730;DHT22;4904;49.152;11.004;2023-12-22T07:30:10;4.00;99.90
9730;DHT22;4904;49.152;11.004;2023-12-22T07:32:42;4.00;99.90
9730;DHT22;4904;49.152;11.004;2023-12-22T07:35:10;4.10;99.90
9730;DHT22;4904;49.152;11.004;2023-12-22T07:37:37;4.10;99.90
9730;DHT22;4904;49.152;11.004;2023-12-22T07:40:05;4.20;99.90
9730;DHT22;4904;49.152;11.004;2023-12-22T07:42:32;4.20;99.90
9730;DHT22;4904;49.152;11.004;2023-12-22T07:44:59;4.20;99.90
9730;DHT22;4904;49.152;11.004;2023-12-22T07:47:27;4.30;99.90
9730;DHT22;4904;49.152;11.004;2023-12-22T07:49:55;4.30;99.90
9730;DHT22;4904;49.152;11.004;2023-12-22T07:52:21;4.30;99.90
9730;DHT22;4904;49.152;11.004;2023-12-22T07:54:48;4.30;99.90
9730;DHT22;4904;49.152;11.004;2023-12-22T07:57:17;4.40;99.90
9730;DHT22;4904;49.152;11.004;2023-12-22T07:59:44;4.40;99.90
9730;DHT22;4904;49.152;11.004;2023-12-22T08:02:11;4.40;99.90
9730;DHT22;4904;49.152;11.004;2023-12-22T08:04:39;4.50;99.90
9730;DHT22;4904;49.152;11.004;2023-12-22T08:07:06;4.50;99.90
9730;DHT22;4904;49.152;11.004;2023-12-22T08:09:33;4.50;99.90
9730;DHT22;4904;49.152;11.004;2023-12-22T08:12:00;4.50;99.90
9730;DHT22;4904;49.152;11.004;2023-12-22T08:14:27;4.50;99.90
9730;DHT22;4904;49.152;11.004;2023-12-22T08:16:54;4.60;99.90
9730;DHT22;4904;49.152;11.004;2023-12-22T08:19:20;4.60;99.90
9730;DHT22;4904;49.152;11.004;2023-12-22T08:21:49;4.70;99.90
9730;DHT22;4904;49.152;11.004;2023-12-22T08:24:16;4.70;99.90
9730;DHT22;4904;49.152;11.004;2023-12-22T08:26:43;4.80;99.90
9730;DHT22;4904;49.152;11.004;2023-12-22T08:29:10;4.90;99.90
9730;DHT22;4904;49.152;11.004;2023-12-22T08:31:37;4.90;99.90
9730;DHT22;4904;49.152;11.004;2023-12-22T08:34:04;5.00;99.90
9730;DHT22;4904;49.152;11.004;2023-12-22T08:36:32;5.10;99.90
9730;DHT22;4904;49.152;11.004;2023-12-22T08:39:00;5.10;99.90
9730;DHT22;4904;49.152;11.004;2023-12-22T08:41:27;5.10;99.90
9730;DHT22;4904;49.152;11.004;2023-12-22T08:43:54;5.20;99.90
9730;DHT22;4904;49.152;11.004;2023-12-22T08:46:21;5.20;99.90
9730;DHT22;4904;49.152;11.004;2023-12-22T08:48:50;5.30;99.90
9730;DHT22;4904;49.152;11.004;2023-12-22T08:51:17;5.30;99.90
9730;DHT22;4904;49.152;11.004;2023-12-22T08:53:44;5.40;99.90
9730;DHT22;4904;49.152;11.004;2023-12-22T08:56:12;5.30;99.90
9730;DHT22;4904;49.152;11.004;2023-12-22T08:58:40;5.40;99.90
9730;DHT22;4904;49.152;11.004;2023-12-22T09:01:07;5.40;99.90
9730;DHT22;4904;49.152;11.004;2023-12-22T09:03:34;5.50;99.90
9730;DHT22;4904;49.152;11.004;2023-12-22T09:06:09;5.60;99.90
9730;DHT22;4904;49.152;11.004;2023-12-22T09:08:35;5.50;99.90
9730;DHT22;4904;49.152;11.004;2023-12-22T09:11:03;5.50;99.90
9730;DHT22;4904;49.152;11.004;2023-12-22T09:13:31;5.60;99.90
9730;DHT22;4904;49.152;11.004;2023-12-22T09:15:58;5.50;99.90
9730;DHT22;4904;49.152;11.004;2023-12-22T09:18:25;5.50;99.90
9730;DHT22;4904;49.152;11.004;2023-12-22T09:20:52;5.40;99.90
9730;DHT22;4904;49.152;11.004;2023-12-22T09:23:18;5.20;99.90
9730;DHT22;4904;49.152;11.004;2023-12-22T09:31:36;5.10;99.90
9730;DHT22;4904;49.152;11.004;2023-12-22T09:34:03;5.40;99.90
9730;DHT22;4904;49.152;11.004;2023-12-22T09:39:02;5.30;99.90
9730;DHT22;4904;49.152;11.004;2023-12-22T09:41:29;5.30;99.90
9730;DHT22;4904;49.152;11.004;2023-12-22T09:43:56;5.30;99.90
9730;DHT22;4904;49.152;11.004;2023-12-22T09:46:25;5.40;99.90
9730;DHT22;4904;49.152;11.004;2023-12-22T09:48:54;5.40;99.90
9730;DHT22;4904;49.152;11.004;2023-12-22T09:51:21;5.40;99.90
9730;DHT22;4904;49.152;11.004;2023-12-22T09:53:49;5.40;99.90
9730;DHT22;4904;49.152;11.004;2023-12-22T09:56:17;5.60;99.90
9730;DHT22;4904;49.152;11.004;2023-12-22T09:58:45;5.60;99.90
9730;DHT22;4904;49.152;11.004;2023-12-22T10:01:14;5.70;99.90
9730;DHT22;4904;49.152;11.004;2023-12-22T10:03:41;5.80;99.90
9730;DHT22;4904;49.152;11.004;2023-12-22T10:06:11;5.90;99.90
9730;DHT22;4904;49.152;11.004;2023-12-22T10:08:39;6.00;99.90
9730;DHT22;4904;49.152;11.004;2023-12-22T10:11:08;6.00;99.90
9730;DHT22;4904;49.152;11.004;2023-12-22T10:13:36;6.10;99.90
9730;DHT22;4904;49.152;11.004;2023-12-22T10:18:34;6.30;99.90
9730;DHT22;4904;49.152;11.004;2023-12-22T10:21:01;6.40;99.90
9730;DHT22;4904;49.152;11.004;2023-12-22T10:23:29;6.40;99.90
9730;DHT22;4904;49.152;11.004;2023-12-22T10:25:57;6.40;99.90
9730;DHT22;4904;49.152;11.004;2023-12-22T10:28:27;6.50;99.90
9730;DHT22;4904;49.152;11.004;2023-12-22T10:30:54;6.50;99.90
9730;DHT22;4904;49.152;11.004;2023-12-22T10:33:24;6.50;99.90
9730;DHT22;4904;49.152;11.004;2023-12-22T10:35:53;6.50;99.90
9730;DHT22;4904;49.152;11.004;2023-12-22T10:38:20;6.40;99.90
9730;DHT22;4904;49.152;11.004;2023-12-22T10:40:49;6.30;99.90
9730;DHT22;4904;49.152;11.004;2023-12-22T10:43:16;6.30;99.90
9730;DHT22;4904;49.152;11.004;2023-12-22T10:45:43;6.20;99.90
9730;DHT22;4904;49.152;11.004;2023-12-22T10:48:11;6.20;99.90
9730;DHT22;4904;49.152;11.004;2023-12-22T10:50:39;6.10;99.90
9730;DHT22;4904;49.152;11.004;2023-12-22T10:53:07;5.70;99.90
9730;DHT22;4904;49.152;11.004;2023-12-22T10:55:34;5.50;99.90
9730;DHT22;4904;49.152;11.004;2023-12-22T10:58:04;5.30;99.90
9730;DHT22;4904;49.152;11.004;2023-12-22T11:00:33;5.20;99.90
9730;DHT22;4904;49.152;11.004;2023-12-22T11:03:01;5.10;99.90
9730;DHT22;4904;49.152;11.004;2023-12-22T11:05:33;5.10;99.90
9730;DHT22;4904;49.152;11.004;2023-12-22T11:08:02;5.00;99.90
9730;DHT22;4904;49.152;11.004;2023-12-22T11:10:30;5.10;99.90
9730;DHT22;4904;49.152;11.004;2023-12-22T11:12:58;5.10;99.90
9730;DHT22;4904;49.152;11.004;2023-12-22T11:15:27;5.10;99.90
9730;DHT22;4904;49.152;11.004;2023-12-22T11:17:56;5.20;99.90
9730;DHT22;4904;49.152;11.004;2023-12-22T11:20:25;5.30;99.90
9730;DHT22;4904;49.152;11.004;2023-12-22T11:22:54;5.40;99.90
9730;DHT22;4904;49.152;11.004;2023-12-22T11:25:24;5.40;99.90
9730;DHT22;4904;49.152;11.004;2023-12-22T11:27:52;5.40;99.90
9730;DHT22;4904;49.152;11.004;2023-12-22T11:30:20;5.40;99.90
9730;DHT22;4904;49.152;11.004;2023-12-22T11:32:51;5.40;99.90
9730;DHT22;4904;49.152;11.004;2023-12-22T11:35:20;5.50;99.90
9730;DHT22;4904;49.152;11.004;2023-12-22T11:37:49;5.60;99.90
9730;DHT22;4904;49.152;11.004;2023-12-22T11:40:16;5.60;99.90
9730;DHT22;4904;49.152;11.004;2023-12-22T11:42:47;5.60;99.90
9730;DHT22;4904;49.152;11.004;2023-12-22T11:45:17;5.70;99.90
9730;DHT22;4904;49.152;11.004;2023-12-22T11:47:45;5.60;99.90
9730;DHT22;4904;49.152;11.004;2023-12-22T11:50:28;5.70;99.90
9730;DHT22;4904;49.152;11.004;2023-12-22T11:52:55;5.70;99.90
9730;DHT22;4904;49.152;11.004;2023-12-22T11:58:38;5.70;99.90
9730;DHT22;4904;49.152;11.004;2023-12-22T12:01:07;5.80;99.90
9730;DHT22;4904;49.152;11.004;2023-12-22T12:03:37;5.80;99.90
9730;DHT22;4904;49.152;11.004;2023-12-22T12:06:14;5.80;99.90
9730;DHT22;4904;49.152;11.004;2023-12-22T12:08:42;5.90;99.90
9730;DHT22;4904;49.152;11.004;2023-12-22T12:11:09;5.90;99.90
9730;DHT22;4904;49.152;11.004;2023-12-22T12:13:41;6.00;99.90
9730;DHT22;4904;49.152;11.004;2023-12-22T12:16:08;6.00;99.90
9730;DHT22;4904;49.152;11.004;2023-12-22T12:18:35;6.00;99.90
9730;DHT22;4904;49.152;11.004;2023-12-22T12:21:02;6.00;99.90
9730;DHT22;4904;49.152;11.004;2023-12-22T12:23:31;6.10;99.90
9730;DHT22;4904;49.152;11.004;2023-12-22T12:25:57;6.10;99.90
9730;DHT22;4904;49.152;11.004;2023-12-22T12:28:25;6.40;99.90
9730;DHT22;4904;49.152;11.004;2023-12-22T12:30:58;6.30;99.90
9730;DHT22;4904;49.152;11.004;2023-12-22T12:33:26;6.30;99.90
9730;DHT22;4904;49.152;11.004;2023-12-22T12:35:53;6.30;99.90
9730;DHT22;4904;49.152;11.004;2023-12-22T12:38:23;6.40;99.90
9730;DHT22;4904;49.152;11.004;2023-12-22T12:40:51;6.40;99.90
9730;DHT22;4904;49.152;11.004;2023-12-22T12:43:19;6.40;99.90
9730;DHT22;4904;49.152;11.004;2023-12-22T12:45:47;6.40;99.90
9730;DHT22;4904;49.152;11.004;2023-12-22T12:48:16;6.50;99.90
9730;DHT22;4904;49.152;11.004;2023-12-22T12:50:44;6.40;99.90
9730;DHT22;4904;49.152;11.004;2023-12-22T12:53:11;6.40;99.90
9730;DHT22;4904;49.152;11.004;2023-12-22T12:55:38;6.40;99.90
9730;DHT22;4904;49.152;11.004;2023-12-22T12:58:06;6.40;99.90
9730;DHT22;4904;49.152;11.004;2023-12-22T13:00:34;6.40;99.90
9730;DHT22;4904;49.152;11.004;2023-12-22T13:03:03;6.40;99.90
9730;DHT22;4904;49.152;11.004;2023-12-22T13:05:31;6.50;99.90
9730;DHT22;4904;49.152;11.004;2023-12-22T13:08:07;6.50;99.90
9730;DHT22;4904;49.152;11.004;2023-12-22T13:10:35;6.60;99.90
9730;DHT22;4904;49.152;11.004;2023-12-22T13:13:02;6.60;99.90
9730;DHT22;4904;49.152;11.004;2023-12-22T13:15:30;6.60;99.90
9730;DHT22;4904;49.152;11.004;2023-12-22T13:17:57;6.60;99.90
9730;DHT22;4904;49.152;11.004;2023-12-22T13:20:24;6.60;99.90
9730;DHT22;4904;49.152;11.004;2023-12-22T13:22:51;6.70;99.90
9730;DHT22;4904;49.152;11.004;2023-12-22T13:25:18;6.70;99.90
9730;DHT22;4904;49.152;11.004;2023-12-22T13:27:47;6.70;99.90
9730;DHT22;4904;49.152;11.004;2023-12-22T13:30:14;6.70;99.90
9730;DHT22;4904;49.152;11.004;2023-12-22T13:32:43;6.70;99.90
9730;DHT22;4904;49.152;11.004;2023-12-22T13:35:10;6.70;99.90
9730;DHT22;4904;49.152;11.004;2023-12-22T13:37:41;6.70;99.90
9730;DHT22;4904;49.152;11.004;2023-12-22T13:40:09;6.70;99.90
9730;DHT22;4904;49.152;11.004;2023-12-22T13:42:36;6.70;99.90
9730;DHT22;4904;49.152;11.004;2023-12-22T13:45:05;6.50;99.90
9730;DHT22;4904;49.152;11.004;2023-12-22T13:47:40;6.50;99.90
9730;DHT22;4904;49.152;11.004;2023-12-22T13:50:14;6.30;99.90
9730;DHT22;4904;49.152;11.004;2023-12-22T13:52:42;6.30;99.90
9730;DHT22;4904;49.152;11.004;2023-12-22T13:55:10;6.20;99.90
9730;DHT22;4904;49.152;11.004;2023-12-22T13:57:38;6.20;99.90
9730;DHT22;4904;49.152;11.004;2023-12-22T14:00:26;6.20;99.90
9730;DHT22;4904;49.152;11.004;2023-12-22T14:02:54;6.20;99.90
9730;DHT22;4904;49.152;11.004;2023-12-22T14:05:23;6.20;99.90
9730;DHT22;4904;49.152;11.004;2023-12-22T14:07:50;6.20;99.90
9730;DHT22;4904;49.152;11.004;2023-12-22T14:10:17;6.20;99.90
9730;DHT22;4904;49.152;11.004;2023-12-22T14:12:43;6.30;99.90
9730;DHT22;4904;49.152;11.004;2023-12-22T14:15:11;6.40;99.90
9730;DHT22;4904;49.152;11.004;2023-12-22T14:17:39;6.40;99.90
9730;DHT22;4904;49.152;11.004;2023-12-22T14:20:08;6.40;99.90
9730;DHT22;4904;49.152;11.004;2023-12-22T14:22:37;6.40;99.90
9730;DHT22;4904;49.152;11.004;2023-12-22T14:25:05;6.40;99.90
9730;DHT22;4904;49.152;11.004;2023-12-22T14:27:32;6.50;99.90
9730;DHT22;4904;49.152;11.004;2023-12-22T14:29:59;6.60;99.90
9730;DHT22;4904;49.152;11.004;2023-12-22T14:32:26;6.60;99.90
9730;DHT22;4904;49.152;11.004;2023-12-22T14:34:55;6.60;99.90
9730;DHT22;4904;49.152;11.004;2023-12-22T14:42:24;6.80;99.90
9730;DHT22;4904;49.152;11.004;2023-12-22T14:47:19;6.90;99.90
9730;DHT22;4904;49.152;11.004;2023-12-22T14:49:46;7.00;99.90
9730;DHT22;4904;49.152;11.004;2023-12-22T14:52:13;6.90;99.90
9730;DHT22;4904;49.152;11.004;2023-12-22T14:57:05;7.00;99.90
9730;DHT22;4904;49.152;11.004;2023-12-22T14:59:33;7.10;99.90
9730;DHT22;4904;49.152;11.004;2023-12-22T15:02:00;7.10;99.90
9730;DHT22;4904;49.152;11.004;2023-12-22T15:19:52;7.30;99.90
9730;DHT22;4904;49.152;11.004;2023-12-22T15:22:19;7.10;99.90
9730;DHT22;4904;49.152;11.004;2023-12-22T15:27:21;6.90;99.90
9730;DHT22;4904;49.152;11.004;2023-12-22T15:29:48;6.80;99.90
9730;DHT22;4904;49.152;11.004;2023-12-22T15:32:15;6.80;99.90
9730;DHT22;4904;49.152;11.004;2023-12-22T15:34:42;6.50;99.90
9730;DHT22;4904;49.152;11.004;2023-12-22T15:39:36;6.30;99.90
9730;DHT22;4904;49.152;11.004;2023-12-22T15:47:03;6.80;99.90
9730;DHT22;4904;49.152;11.004;2023-12-22T15:49:30;6.90;99.90
9730;DHT22;4904;49.152;11.004;2023-12-22T15:51:57;7.00;99.90
9730;DHT22;4904;49.152;11.004;2023-12-22T15:54:24;7.00;99.90
9730;DHT22;4904;49.152;11.004;2023-12-22T15:56:52;7.10;99.90
9730;DHT22;4904;49.152;11.004;2023-12-22T15:59:19;7.10;99.90
9730;DHT22;4904;49.152;11.004;2023-12-22T16:01:46;7.20;99.90
9730;DHT22;4904;49.152;11.004;2023-12-22T16:04:13;7.20;99.90
9730;DHT22;4904;49.152;11.004;2023-12-22T16:06:39;7.20;99.90
9730;DHT22;4904;49.152;11.004;2023-12-22T16:09:06;7.30;99.90
9730;DHT22;4904;49.152;11.004;2023-12-22T16:11:33;7.40;99.90
9730;DHT22;4904;49.152;11.004;2023-12-22T16:14:01;7.40;99.90
9730;DHT22;4904;49.152;11.004;2023-12-22T16:16:28;7.40;99.90
9730;DHT22;4904;49.152;11.004;2023-12-22T16:18:55;7.50;99.90
9730;DHT22;4904;49.152;11.004;2023-12-22T16:21:22;7.50;99.90
9730;DHT22;4904;49.152;11.004;2023-12-22T16:23:49;7.50;99.90
9730;DHT22;4904;49.152;11.004;2023-12-22T16:26:18;7.50;99.90
9730;DHT22;4904;49.152;11.004;2023-12-22T16:28:46;7.50;99.90
9730;DHT22;4904;49.152;11.004;2023-12-22T16:31:14;7.50;99.90
9730;DHT22;4904;49.152;11.004;2023-12-22T16:33:42;7.50;99.90
9730;DHT22;4904;49.152;11.004;2023-12-22T16:36:09;7.50;99.90
9730;DHT22;4904;49.152;11.004;2023-12-22T16:38:37;7.50;99.90
9730;DHT22;4904;49.152;11.004;2023-12-22T16:41:04;7.50;99.90
9730;DHT22;4904;49.152;11.004;2023-12-22T16:43:32;7.50;99.90
9730;DHT22;4904;49.152;11.004;2023-12-22T16:45:59;7.50;99.90
9730;DHT22;4904;49.152;11.004;2023-12-22T16:48:28;7.60;99.90
9730;DHT22;4904;49.152;11.004;2023-12-22T16:50:55;7.60;99.90
9730;DHT22;4904;49.152;11.004;2023-12-22T16:53:24;7.60;99.90
9730;DHT22;4904;49.152;11.004;2023-12-22T16:55:51;7.60;99.90
9730;DHT22;4904;49.152;11.004;2023-12-22T16:58:18;7.80;99.90
9730;DHT22;4904;49.152;11.004;2023-12-22T17:00:45;7.90;99.90